Vasiliy Bozhenko — URHP — position and weather

sailwx.info

Track history (hours):
 
Tides and Currents Weather Stations Pressure Air Temp Water Temp Dewpoint Dewpoint Depression Visibility Wind Speed Wind Dir Waves Ship Positions

Vasiliy Bozhenko

Last reported at 2017-Apr-29 17:16 UTC. Time now 2017-Apr-29 17:39 UTC.
Position N 46°36' E 031°39'.

Length 114 m; draft 3.9 m.

Type: Cargo ship. MMSI: 272085000.

Date/timePositionNaut miles runAvg speedWind from/ knotsBaromVisibWave heightAir tempDewpointWater temp
2017-Apr-29 17:16N 46°36' E 031°39'2 6.3
2017-Apr-29 16:54N 46°36' E 031°42'2 6.3
2017-Apr-29 16:30N 46°36' E 031°46'3 6.0
2017-Apr-29 16:00N 46°35' E 031°50'3 6.2
2017-Apr-29 15:30N 46°34' E 031°55'3 6.2
2017-Apr-29 15:00N 46°33' E 031°59'6 6.1
2017-Apr-29 14:00N 46°32' E 032°07'3 6.3
2017-Apr-29 13:28N 46°33' E 032°12'10 0.6
2017-Apr-28 20:39N 46°33' E 032°26'0 0.0
2017-Apr-28 20:23N 46°33' E 032°26'0 0.0
2017-Apr-28 17:30N 46°33' E 032°26'0 0.0
2017-Apr-28 16:55N 46°33' E 032°26'0 0.0
2017-Apr-28 06:03N 46°33' E 032°26'0 0.0
2017-Apr-28 05:57N 46°33' E 032°26'0 0.0
2017-Apr-28 05:26N 46°33' E 032°26'0 0.0
2017-Apr-28 04:28N 46°33' E 032°26'0 0.0
2017-Apr-28 03:59N 46°33' E 032°26'122 3.7
2017-Apr-26 19:19N 47°35' E 035°02'3 7.1
2017-Apr-26 18:50N 47°37' E 035°04'5 7.5
2017-Apr-26 18:10N 47°42' E 035°08'1 7.3
2017-Apr-26 18:00N 47°43' E 035°09'3 6.9
2017-Apr-26 17:30N 47°46' E 035°09'3 6.3
2017-Apr-26 17:00N 47°49' E 035°08'3 5.9
2017-Apr-26 16:30N 47°52' E 035°05'0 0.6
2017-Apr-26 15:57N 47°52' E 035°06'1 1.8
2017-Apr-26 15:30N 47°53' E 035°06'0 0.8
2017-Apr-26 15:00N 47°52' E 035°06'0 0.0
2017-Apr-26 14:30N 47°52' E 035°06'0 0.0
2017-Apr-26 13:30N 47°52' E 035°06'0 0.0
2017-Apr-26 13:00N 47°52' E 035°06'0 0.0
2017-Apr-26 12:23N 47°52' E 035°06'0 0.1
2017-Apr-26 11:58N 47°52' E 035°06'0 0.0
2017-Apr-26 11:28N 47°52' E 035°06'0 0.0
2017-Apr-26 10:58N 47°52' E 035°06'0 0.0
2017-Apr-26 10:13N 47°52' E 035°06'0 0.0
2017-Apr-26 09:56N 47°52' E 035°06'0 0.0
2017-Apr-26 09:26N 47°52' E 035°06'0 0.0
2017-Apr-26 08:56N 47°52' E 035°06'0 0.0
2017-Apr-26 08:26N 47°52' E 035°06'0 0.0
2017-Apr-26 08:00N 47°52' E 035°06'0 0.1
2017-Apr-26 07:25N 47°52' E 035°06'0 0.0
2017-Apr-26 06:53N 47°52' E 035°06'0 0.0
2017-Apr-26 06:29N 47°52' E 035°06'0 0.0
2017-Apr-26 05:59N 47°52' E 035°06'0 0.0
2017-Apr-26 05:29N 47°52' E 035°06'0 0.0
2017-Apr-26 04:58N 47°52' E 035°06'0 0.0
2017-Apr-26 04:16N 47°52' E 035°06'0 0.0
2017-Apr-26 04:00N 47°52' E 035°06'0 0.0
2017-Apr-26 03:30N 47°52' E 035°06'0 0.0
2017-Apr-26 02:59N 47°52' E 035°06'0 0.0
2017-Apr-26 02:25N 47°52' E 035°06'0 0.0
2017-Apr-26 01:56N 47°52' E 035°06'0 0.0
2017-Apr-26 01:26N 47°52' E 035°06'0 0.0
2017-Apr-26 00:56N 47°52' E 035°06'0 0.0
2017-Apr-26 00:26N 47°52' E 035°06'0 0.0
2017-Apr-25 23:59N 47°52' E 035°06'0 0.0
2017-Apr-25 23:25N 47°52' E 035°06'0 0.0
2017-Apr-25 22:55N 47°52' E 035°06'0 0.0
2017-Apr-25 22:25N 47°52' E 035°06'0 0.0
2017-Apr-25 21:58N 47°52' E 035°06'0 0.0
2017-Apr-25 21:30N 47°52' E 035°06'0 0.8
2017-Apr-25 21:00N 47°52' E 035°06'0 0.4
2017-Apr-25 20:25N 47°52' E 035°06'0 0.0
2017-Apr-25 19:55N 47°52' E 035°06'0 0.0
2017-Apr-25 19:25N 47°52' E 035°06'0 0.0
2017-Apr-25 19:00N 47°52' E 035°06'0 0.0
2017-Apr-25 18:30N 47°52' E 035°06'0 0.0
2017-Apr-25 17:58N 47°52' E 035°06'0 0.0
2017-Apr-25 17:26N 47°52' E 035°06'0 0.0
2017-Apr-25 16:56N 47°52' E 035°06'0 0.0
2017-Apr-25 16:30N 47°52' E 035°06'0 0.1
2017-Apr-25 16:00N 47°52' E 035°06'0 0.1
2017-Apr-25 15:30N 47°52' E 035°06'0 0.1
2017-Apr-25 15:00N 47°52' E 035°06'0 0.0
2017-Apr-25 14:30N 47°52' E 035°06'0 0.0
2017-Apr-25 13:30N 47°52' E 035°06'0 0.0
2017-Apr-25 13:00N 47°52' E 035°06'0 0.0
2017-Apr-25 12:30N 47°52' E 035°06'0 0.0
2017-Apr-25 12:00N 47°52' E 035°06'0 0.0
2017-Apr-25 11:30N 47°52' E 035°06'0 0.0
2017-Apr-25 11:00N 47°52' E 035°06'0 0.1
2017-Apr-25 10:30N 47°52' E 035°06'0 0.2
2017-Apr-25 09:59N 47°52' E 035°06'0 0.7
2017-Apr-25 09:26N 47°52' E 035°06'0 0.0
2017-Apr-25 08:55N 47°52' E 035°06'0 0.0
2017-Apr-25 08:25N 47°52' E 035°06'0 0.0
2017-Apr-25 07:56N 47°52' E 035°06'0 0.0
2017-Apr-25 07:20N 47°52' E 035°06'0 0.0
2017-Apr-25 07:00N 47°52' E 035°06'0 0.0
2017-Apr-25 06:29N 47°52' E 035°06'0 0.0
2017-Apr-25 05:59N 47°52' E 035°06'0 0.0
2017-Apr-25 05:29N 47°52' E 035°06'0 0.0
2017-Apr-25 04:57N 47°52' E 035°06'0 0.0
2017-Apr-25 04:27N 47°52' E 035°06'0 0.0
2017-Apr-25 03:57N 47°52' E 035°06'0 0.0
2017-Apr-25 03:29N 47°52' E 035°06'0 0.0
2017-Apr-25 02:59N 47°52' E 035°06'0 0.0
2017-Apr-25 02:29N 47°52' E 035°06'0 0.0
2017-Apr-25 01:59N 47°52' E 035°06'0 0.0
2017-Apr-25 01:28N 47°52' E 035°06'0 0.0
2017-Apr-25 00:58N 47°52' E 035°06'0 0.0
2017-Apr-25 00:28N 47°52' E 035°06'0 0.0
2017-Apr-24 23:58N 47°52' E 035°06'0 0.0
2017-Apr-24 23:28N 47°52' E 035°06'0 0.0
2017-Apr-24 22:58N 47°52' E 035°06'0 0.0
2017-Apr-24 22:28N 47°52' E 035°06'0 0.0
2017-Apr-24 21:58N 47°52' E 035°06'0 0.0
2017-Apr-24 21:28N 47°52' E 035°06'0 0.0
2017-Apr-24 20:58N 47°52' E 035°06'0 0.0
2017-Apr-24 20:28N 47°52' E 035°06'0 0.0
2017-Apr-24 19:58N 47°52' E 035°06'0 0.0
2017-Apr-24 19:22N 47°52' E 035°06'0 0.0
2017-Apr-24 18:58N 47°52' E 035°06'0 0.0
2017-Apr-24 18:22N 47°52' E 035°06'0 0.0
2017-Apr-24 17:58N 47°52' E 035°06'0 0.0
2017-Apr-24 17:28N 47°52' E 035°06'0 0.0
2017-Apr-24 16:59N 47°52' E 035°06'0 0.0
2017-Apr-24 16:15N 47°52' E 035°06'0 0.0
2017-Apr-24 15:57N 47°52' E 035°06'0 0.0
2017-Apr-24 15:27N 47°52' E 035°06'0 0.0
2017-Apr-24 14:57N 47°52' E 035°06'0 0.0
2017-Apr-24 14:27N 47°52' E 035°06'0 0.0
2017-Apr-24 13:25N 47°52' E 035°06'0 0.0
2017-Apr-24 12:55N 47°52' E 035°06'0 0.0
2017-Apr-24 12:25N 47°52' E 035°06'0 0.0
2017-Apr-24 11:57N 47°52' E 035°06'0 0.0
2017-Apr-24 11:27N 47°52' E 035°06'0 0.0
2017-Apr-24 10:57N 47°52' E 035°06'0 0.0
2017-Apr-24 10:26N 47°52' E 035°06'0 0.0
2017-Apr-24 09:58N 47°52' E 035°06'0 0.0
2017-Apr-24 09:28N 47°52' E 035°06'0 0.0
2017-Apr-24 08:58N 47°52' E 035°06'0 0.0
2017-Apr-24 08:28N 47°52' E 035°06'0 0.0
2017-Apr-24 07:58N 47°52' E 035°06'0 0.0
2017-Apr-24 07:28N 47°52' E 035°06'0 0.0
2017-Apr-24 06:58N 47°52' E 035°06'0 0.0
2017-Apr-24 06:28N 47°52' E 035°06'0 0.0
2017-Apr-24 05:58N 47°52' E 035°06'0 0.0
2017-Apr-24 05:28N 47°52' E 035°06'0 0.0
2017-Apr-24 04:58N 47°52' E 035°06'0 0.0
2017-Apr-24 04:28N 47°52' E 035°06'0 0.1
2017-Apr-24 04:00N 47°52' E 035°06'1 1.1
2017-Apr-24 03:30N 47°52' E 035°05'1 1.3
2017-Apr-24 03:00N 47°51' E 035°05'3 5.5
2017-Apr-24 02:30N 47°49' E 035°08'1 2.2
2017-Apr-24 02:00N 47°49' E 035°09'0 0.0
2017-Apr-24 01:28N 47°49' E 035°09'0 0.0
2017-Apr-24 00:57N 47°49' E 035°09'0 0.0
2017-Apr-24 00:27N 47°49' E 035°09'0 0.0
2017-Apr-23 23:57N 47°49' E 035°09'0 0.0
2017-Apr-23 23:27N 47°49' E 035°09'0 0.0
2017-Apr-23 22:58N 47°49' E 035°09'0 0.0
2017-Apr-23 22:28N 47°49' E 035°09'0 0.0
2017-Apr-23 21:58N 47°49' E 035°09'0 0.0
2017-Apr-23 21:26N 47°49' E 035°09'0 0.0
2017-Apr-23 21:00N 47°49' E 035°09'0 0.0
2017-Apr-23 20:26N 47°49' E 035°09'0 0.0
2017-Apr-23 19:59N 47°49' E 035°09'0 0.0
2017-Apr-23 19:26N 47°49' E 035°09'0 0.0
2017-Apr-23 18:56N 47°49' E 035°09'0 0.0
2017-Apr-23 18:26N 47°49' E 035°09'0 0.0
2017-Apr-23 17:56N 47°49' E 035°09'0 0.0
2017-Apr-23 17:26N 47°49' E 035°09'0 0.0
2017-Apr-23 16:56N 47°49' E 035°09'0 0.8
2017-Apr-23 16:30N 47°48' E 035°10'3 5.5
2017-Apr-23 16:00N 47°46' E 035°10'3 6.3
2017-Apr-23 15:30N 47°43' E 035°08'4 6.8
2017-Apr-23 14:59N 47°39' E 035°07'4 7.0
2017-Apr-23 14:29N 47°37' E 035°03'129 4.8
2017-Apr-22 11:22N 46°33' E 032°17'6 7.2
2017-Apr-22 10:29N 46°32' E 032°08'3 6.9
2017-Apr-22 10:00N 46°32' E 032°04'4 7.2
2017-Apr-22 09:30N 46°33' E 031°59'4 7.4
2017-Apr-22 09:00N 46°34' E 031°54'4 7.2
2017-Apr-22 08:30N 46°36' E 031°49'  
Track history (hours):
 
Tides and Currents Weather Stations Pressure Air Temp Water Temp Dewpoint Dewpoint Depression Visibility Wind Speed Wind Dir Waves Ship Positions

Vasiliy Bozhenko

Last reported at 2017-Apr-29 17:16 UTC. Time now 2017-Apr-29 17:39 UTC.
Position N 46°36' E 031°39'.

Length 114 m; draft 3.9 m.

Type: Cargo ship. MMSI: 272085000.

Date/timePositionNaut miles runAvg speedWind from/ knotsBaromVisibWave heightAir tempDewpointWater temp
2017-Apr-29 17:16N 46°36' E 031°39'2 6.3
2017-Apr-29 16:54N 46°36' E 031°42'2 6.3
2017-Apr-29 16:30N 46°36' E 031°46'3 6.0
2017-Apr-29 16:00N 46°35' E 031°50'3 6.2
2017-Apr-29 15:30N 46°34' E 031°55'3 6.2
2017-Apr-29 15:00N 46°33' E 031°59'6 6.1
2017-Apr-29 14:00N 46°32' E 032°07'3 6.3
2017-Apr-29 13:28N 46°33' E 032°12'10 0.6
2017-Apr-28 20:39N 46°33' E 032°26'0 0.0
2017-Apr-28 20:23N 46°33' E 032°26'0 0.0
2017-Apr-28 17:30N 46°33' E 032°26'0 0.0
2017-Apr-28 16:55N 46°33' E 032°26'0 0.0
2017-Apr-28 06:03N 46°33' E 032°26'0 0.0
2017-Apr-28 05:57N 46°33' E 032°26'0 0.0
2017-Apr-28 05:26N 46°33' E 032°26'0 0.0
2017-Apr-28 04:28N 46°33' E 032°26'0 0.0
2017-Apr-28 03:59N 46°33' E 032°26'122 3.7
2017-Apr-26 19:19N 47°35' E 035°02'3 7.1
2017-Apr-26 18:50N 47°37' E 035°04'5 7.5
2017-Apr-26 18:10N 47°42' E 035°08'1 7.3
2017-Apr-26 18:00N 47°43' E 035°09'3 6.9
2017-Apr-26 17:30N 47°46' E 035°09'3 6.3
2017-Apr-26 17:00N 47°49' E 035°08'3 5.9
2017-Apr-26 16:30N 47°52' E 035°05'0 0.6
2017-Apr-26 15:57N 47°52' E 035°06'1 1.8
2017-Apr-26 15:30N 47°53' E 035°06'0 0.8
2017-Apr-26 15:00N 47°52' E 035°06'0 0.0
2017-Apr-26 14:30N 47°52' E 035°06'0 0.0
2017-Apr-26 13:30N 47°52' E 035°06'0 0.0
2017-Apr-26 13:00N 47°52' E 035°06'0 0.0
2017-Apr-26 12:23N 47°52' E 035°06'0 0.1
2017-Apr-26 11:58N 47°52' E 035°06'0 0.0
2017-Apr-26 11:28N 47°52' E 035°06'0 0.0
2017-Apr-26 10:58N 47°52' E 035°06'0 0.0
2017-Apr-26 10:13N 47°52' E 035°06'0 0.0
2017-Apr-26 09:56N 47°52' E 035°06'0 0.0
2017-Apr-26 09:26N 47°52' E 035°06'0 0.0
2017-Apr-26 08:56N 47°52' E 035°06'0 0.0
2017-Apr-26 08:26N 47°52' E 035°06'0 0.0
2017-Apr-26 08:00N 47°52' E 035°06'0 0.1
2017-Apr-26 07:25N 47°52' E 035°06'0 0.0
2017-Apr-26 06:53N 47°52' E 035°06'0 0.0
2017-Apr-26 06:29N 47°52' E 035°06'0 0.0
2017-Apr-26 05:59N 47°52' E 035°06'0 0.0
2017-Apr-26 05:29N 47°52' E 035°06'0 0.0
2017-Apr-26 04:58N 47°52' E 035°06'0 0.0
2017-Apr-26 04:16N 47°52' E 035°06'0 0.0
2017-Apr-26 04:00N 47°52' E 035°06'0 0.0
2017-Apr-26 03:30N 47°52' E 035°06'0 0.0
2017-Apr-26 02:59N 47°52' E 035°06'0 0.0
2017-Apr-26 02:25N 47°52' E 035°06'0 0.0
2017-Apr-26 01:56N 47°52' E 035°06'0 0.0
2017-Apr-26 01:26N 47°52' E 035°06'0 0.0
2017-Apr-26 00:56N 47°52' E 035°06'0 0.0
2017-Apr-26 00:26N 47°52' E 035°06'0 0.0
2017-Apr-25 23:59N 47°52' E 035°06'0 0.0
2017-Apr-25 23:25N 47°52' E 035°06'0 0.0
2017-Apr-25 22:55N 47°52' E 035°06'0 0.0
2017-Apr-25 22:25N 47°52' E 035°06'0 0.0
2017-Apr-25 21:58N 47°52' E 035°06'0 0.0
2017-Apr-25 21:30N 47°52' E 035°06'0 0.8
2017-Apr-25 21:00N 47°52' E 035°06'0 0.4
2017-Apr-25 20:25N 47°52' E 035°06'0 0.0
2017-Apr-25 19:55N 47°52' E 035°06'0 0.0
2017-Apr-25 19:25N 47°52' E 035°06'0 0.0
2017-Apr-25 19:00N 47°52' E 035°06'0 0.0
2017-Apr-25 18:30N 47°52' E 035°06'0 0.0
2017-Apr-25 17:58N 47°52' E 035°06'0 0.0
2017-Apr-25 17:26N 47°52' E 035°06'0 0.0
2017-Apr-25 16:56N 47°52' E 035°06'0 0.0
2017-Apr-25 16:30N 47°52' E 035°06'0 0.1
2017-Apr-25 16:00N 47°52' E 035°06'0 0.1
2017-Apr-25 15:30N 47°52' E 035°06'0 0.1
2017-Apr-25 15:00N 47°52' E 035°06'0 0.0
2017-Apr-25 14:30N 47°52' E 035°06'0 0.0
2017-Apr-25 13:30N 47°52' E 035°06'0 0.0
2017-Apr-25 13:00N 47°52' E 035°06'0 0.0
2017-Apr-25 12:30N 47°52' E 035°06'0 0.0
2017-Apr-25 12:00N 47°52' E 035°06'0 0.0
2017-Apr-25 11:30N 47°52' E 035°06'0 0.0
2017-Apr-25 11:00N 47°52' E 035°06'0 0.1
2017-Apr-25 10:30N 47°52' E 035°06'0 0.2
2017-Apr-25 09:59N 47°52' E 035°06'0 0.7
2017-Apr-25 09:26N 47°52' E 035°06'0 0.0
2017-Apr-25 08:55N 47°52' E 035°06'0 0.0
2017-Apr-25 08:25N 47°52' E 035°06'0 0.0
2017-Apr-25 07:56N 47°52' E 035°06'0 0.0
2017-Apr-25 07:20N 47°52' E 035°06'0 0.0
2017-Apr-25 07:00N 47°52' E 035°06'0 0.0
2017-Apr-25 06:29N 47°52' E 035°06'0 0.0
2017-Apr-25 05:59N 47°52' E 035°06'0 0.0
2017-Apr-25 05:29N 47°52' E 035°06'0 0.0
2017-Apr-25 04:57N 47°52' E 035°06'0 0.0
2017-Apr-25 04:27N 47°52' E 035°06'0 0.0
2017-Apr-25 03:57N 47°52' E 035°06'0 0.0
2017-Apr-25 03:29N 47°52' E 035°06'0 0.0
2017-Apr-25 02:59N 47°52' E 035°06'0 0.0
2017-Apr-25 02:29N 47°52' E 035°06'0 0.0
2017-Apr-25 01:59N 47°52' E 035°06'0 0.0
2017-Apr-25 01:28N 47°52' E 035°06'0 0.0
2017-Apr-25 00:58N 47°52' E 035°06'0 0.0
2017-Apr-25 00:28N 47°52' E 035°06'0 0.0
2017-Apr-24 23:58N 47°52' E 035°06'0 0.0
2017-Apr-24 23:28N 47°52' E 035°06'0 0.0
2017-Apr-24 22:58N 47°52' E 035°06'0 0.0
2017-Apr-24 22:28N 47°52' E 035°06'0 0.0
2017-Apr-24 21:58N 47°52' E 035°06'0 0.0
2017-Apr-24 21:28N 47°52' E 035°06'0 0.0
2017-Apr-24 20:58N 47°52' E 035°06'0 0.0
2017-Apr-24 20:28N 47°52' E 035°06'0 0.0
2017-Apr-24 19:58N 47°52' E 035°06'0 0.0
2017-Apr-24 19:22N 47°52' E 035°06'0 0.0
2017-Apr-24 18:58N 47°52' E 035°06'0 0.0
2017-Apr-24 18:22N 47°52' E 035°06'0 0.0
2017-Apr-24 17:58N 47°52' E 035°06'0 0.0
2017-Apr-24 17:28N 47°52' E 035°06'0 0.0
2017-Apr-24 16:59N 47°52' E 035°06'0 0.0
2017-Apr-24 16:15N 47°52' E 035°06'0 0.0
2017-Apr-24 15:57N 47°52' E 035°06'0 0.0
2017-Apr-24 15:27N 47°52' E 035°06'0 0.0
2017-Apr-24 14:57N 47°52' E 035°06'0 0.0
2017-Apr-24 14:27N 47°52' E 035°06'0 0.0
2017-Apr-24 13:25N 47°52' E 035°06'0 0.0
2017-Apr-24 12:55N 47°52' E 035°06'0 0.0
2017-Apr-24 12:25N 47°52' E 035°06'0 0.0
2017-Apr-24 11:57N 47°52' E 035°06'0 0.0
2017-Apr-24 11:27N 47°52' E 035°06'0 0.0
2017-Apr-24 10:57N 47°52' E 035°06'0 0.0
2017-Apr-24 10:26N 47°52' E 035°06'0 0.0
2017-Apr-24 09:58N 47°52' E 035°06'0 0.0
2017-Apr-24 09:28N 47°52' E 035°06'0 0.0
2017-Apr-24 08:58N 47°52' E 035°06'0 0.0
2017-Apr-24 08:28N 47°52' E 035°06'0 0.0
2017-Apr-24 07:58N 47°52' E 035°06'0 0.0
2017-Apr-24 07:28N 47°52' E 035°06'0 0.0
2017-Apr-24 06:58N 47°52' E 035°06'0 0.0
2017-Apr-24 06:28N 47°52' E 035°06'0 0.0
2017-Apr-24 05:58N 47°52' E 035°06'0 0.0
2017-Apr-24 05:28N 47°52' E 035°06'0 0.0
2017-Apr-24 04:58N 47°52' E 035°06'0 0.0
2017-Apr-24 04:28N 47°52' E 035°06'0 0.1
2017-Apr-24 04:00N 47°52' E 035°06'1 1.1
2017-Apr-24 03:30N 47°52' E 035°05'1 1.3
2017-Apr-24 03:00N 47°51' E 035°05'3 5.5
2017-Apr-24 02:30N 47°49' E 035°08'1 2.2
2017-Apr-24 02:00N 47°49' E 035°09'0 0.0
2017-Apr-24 01:28N 47°49' E 035°09'0 0.0
2017-Apr-24 00:57N 47°49' E 035°09'0 0.0
2017-Apr-24 00:27N 47°49' E 035°09'0 0.0
2017-Apr-23 23:57N 47°49' E 035°09'0 0.0
2017-Apr-23 23:27N 47°49' E 035°09'0 0.0
2017-Apr-23 22:58N 47°49' E 035°09'0 0.0
2017-Apr-23 22:28N 47°49' E 035°09'0 0.0
2017-Apr-23 21:58N 47°49' E 035°09'0 0.0
2017-Apr-23 21:26N 47°49' E 035°09'0 0.0
2017-Apr-23 21:00N 47°49' E 035°09'0 0.0
2017-Apr-23 20:26N 47°49' E 035°09'0 0.0
2017-Apr-23 19:59N 47°49' E 035°09'0 0.0
2017-Apr-23 19:26N 47°49' E 035°09'0 0.0
2017-Apr-23 18:56N 47°49' E 035°09'0 0.0
2017-Apr-23 18:26N 47°49' E 035°09'0 0.0
2017-Apr-23 17:56N 47°49' E 035°09'0 0.0
2017-Apr-23 17:26N 47°49' E 035°09'0 0.0
2017-Apr-23 16:56N 47°49' E 035°09'0 0.8
2017-Apr-23 16:30N 47°48' E 035°10'3 5.5
2017-Apr-23 16:00N 47°46' E 035°10'3 6.3
2017-Apr-23 15:30N 47°43' E 035°08'4 6.8
2017-Apr-23 14:59N 47°39' E 035°07'4 7.0
2017-Apr-23 14:29N 47°37' E 035°03'129 4.8
2017-Apr-22 11:22N 46°33' E 032°17'6 7.2
2017-Apr-22 10:29N 46°32' E 032°08'3 6.9
2017-Apr-22 10:00N 46°32' E 032°04'4 7.2
2017-Apr-22 09:30N 46°33' E 031°59'4 7.4
2017-Apr-22 09:00N 46°34' E 031°54'4 7.2
2017-Apr-22 08:30N 46°36' E 031°49'  

Dump ship's entire track history